Latest Coastal Weather Observations for Cape Flattery

IDQ60701

Issued at 8:02 am EST Tuesday 28 March 2017 (issued every 10 minutes, with the page automatically refreshed every 10 minutes)

About coastal observations | Map of coastal stations | Coastal observations for QLD | Marine services | Other Formats
Station Details ID: 031213 Name: CAPE FLATTERY Lat: -14.97 Lon: 145.31 Height: 18.5 m
Data from the previous 72 hours. | See also: Recent months at Cape Flattery
Date/Time
EST
Temp
°C
Wind Pressure Rain since
9am
mm
Weather Cloud Vis
km
Sea
Height
m
Swell
Dir  Spd
kts
Gust
kts
hPa Trend Height
m
Period
s
Dir
28/08:00am 29.7 W 8 8 1007.1 - - - - - - - - -
28/07:30am 28.7 WNW 6 10 1006.6 - 0.0 - - - - - - -
28/07:00am 26.8 SW 3 5 1006.2 - 0.0 - - - - - - -
28/06:30am 26.7 WNW 5 7 1005.7 - 0.0 - - - - - - -
28/06:00am 27.3 NW 7 9 1005.5 - 0.0 - - - - - - -
28/05:30am 27.2 NW 7 9 1005.3 - 0.0 - - - - - - -
28/05:00am 27.4 NW 8 10 1005.2 - 0.0 - - - - - - -
28/04:30am 27.4 NW 9 11 1005.0 - 0.0 - - - - - - -
28/04:00am 27.3 NW 7 9 1005.0 - 0.0 - - - - - - -
28/03:30am 27.7 NW 10 13 1005.0 - 0.0 - - - - - - -
28/03:00am 28.1 NW 11 14 1005.0 - 0.0 - - - - - - -
28/02:30am 28.4 NW 13 17 1005.1 - 0.0 - - - - - - -
28/02:00am 28.4 NW 11 14 1005.4 - 0.0 - - - - - - -
28/01:30am 28.3 NNW 10 13 1005.9 - 0.0 - - - - - - -
28/01:00am 28.3 NW 10 13 1006.0 - 0.0 - - - - - - -
28/12:30am 28.2 NW 8 12 1006.3 - 0.0 - - - - - - -
28/12:00am 28.5 NW 8 11 1006.7 - 0.0 - - - - - - -
 
Date/Time
EST
Temp
°C
Wind Pressure Rain since
9am
mm
Weather Cloud Vis
km
Sea
Height
m
Swell
Dir  Spd
kts
Gust
kts
hPa Trend Height
m
Period
s
Dir
27/11:30pm 28.8 NW 9 12 1006.9 - 0.0 - - - - - - -
27/11:00pm 29.0 NW 9 13 1007.1 - 0.0 - - - - - - -
27/10:30pm 29.1 NW 8 11 1007.0 - 0.0 - - - - - - -
27/10:00pm 29.5 NW 13 16 1007.0 - 0.0 - - - - - - -
27/09:30pm 29.6 NW 12 15 1006.9 - 0.0 - - - - - - -
27/09:00pm 29.6 NW 12 14 1006.6 - 0.0 - - - - - - -
27/08:30pm 29.8 NW 12 16 1006.3 - 0.0 - - - - - - -
27/08:00pm 29.8 NW 12 17 1005.9 - 0.0 - - - - - - -
27/07:30pm 29.8 NNW 13 18 1005.7 - 0.0 - - - - - - -
27/07:00pm 29.9 NNW 13 18 1005.6 - 0.0 - - - - - - -
27/06:30pm 30.1 NNW 14 19 1005.3 - 0.0 - - - - - - -
27/06:00pm 30.6 NNW 16 20 1004.8 - 0.0 - - - - - - -
27/05:30pm 31.0 NNW 13 18 1004.7 - 0.0 - - - - - - -
27/05:00pm 31.6 NNW 13 19 1004.5 - 0.0 - - - - - - -
27/04:30pm 31.0 NNW 15 19 1004.3 - 0.0 - - - - - - -
27/04:00pm 32.2 NNW 15 21 1004.2 - 0.0 - - - - - - -
27/03:30pm 32.5 NNW 11 15 1004.1 - 0.0 - - - - - - -
27/03:00pm 36.4 W 10 15 1004.3 - 0.0 - - - - - - -
27/02:30pm 36.3 W 11 16 1004.7 - 0.0 - - - - - - -
27/02:00pm 36.1 W 10 16 1005.1 - 0.0 - - - - - - -
27/01:30pm 35.7 W 10 18 1005.4 - 0.0 - - - - - - -
27/01:00pm 35.4 W 10 16 1006.1 - 0.0 - - - - - - -
27/12:30pm 35.0 W 13 17 1006.6 - 0.0 - - - - - - -
27/12:00pm 35.3 W 12 19 1007.2 - 0.0 - - - - - - -
27/11:30am 34.2 W 13 18 1008.1 - 0.0 - - - - - - -
27/11:00am 33.4 W 12 18 1008.4 - 0.0 - - - - - - -
27/10:30am 32.6 W 14 19 1008.8 - 0.0 - - - - - - -
27/10:00am 31.9 W 13 19 1008.9 - 0.0 - - - - - - -
27/09:30am 30.9 W 11 16 1009.2 - 0.0 - - - - - - -
27/09:00am 29.9 WSW 12 16 1009.2 - 0.0 - - - - - - -
27/08:30am 29.8 W 9 12 1009.0 - 0.0 - - - - - - -
27/08:00am 28.8 WNW 7 11 1008.7 - 0.0 - - - - - - -
27/07:30am 27.4 WNW 4 6 1008.6 - 0.0 - - - - - - -
27/07:00am 25.7 WSW 2 4 1008.4 - 0.0 - - - - - - -
27/06:30am 25.2 WSW 3 4 1008.2 - 0.0 - - - - - - -
27/06:00am 25.7 WNW 5 7 1007.9 - 0.0 - - - - - - -
27/05:30am 25.5 NW 4 5 1007.8 - 0.0 - - - - - - -
27/05:00am 25.9 W 4 5 1007.7 - 0.0 - - - - - - -
27/04:30am 26.5 WNW 7 8 1007.6 - 0.0 - - - - - - -
27/04:00am 26.8 WNW 7 9 1007.8 - 0.0 - - - - - - -
27/03:30am 26.9 WNW 7 9 1007.7 - 0.0 - - - - - - -
27/03:00am 27.1 WNW 6 8 1007.6 - 0.0 - - - - - - -
27/02:30am 27.1 WNW 7 9 1007.8 - 0.0 - - - - - - -
27/02:00am 27.2 NW 6 9 1008.2 - 0.0 - - - - - - -
27/01:30am 27.4 WNW 7 9 1008.3 - 0.0 - - - - - - -
27/01:00am 28.2 NW 9 12 1008.6 - 0.0 - - - - - - -
27/12:30am 29.1 NNW 13 17 1009.0 - 0.0 - - - - - - -
27/12:00am 29.1 NNW 12 16 1009.0 - 0.0 - - - - - - -
 
Date/Time
EST
Temp
°C
Wind Pressure Rain since
9am
mm
Weather Cloud Vis
km
Sea
Height
m
Swell
Dir  Spd
kts
Gust
kts
hPa Trend Height
m
Period
s
Dir
26/11:30pm 29.1 NW 12 17 1009.2 - 0.0 - - - - - - -
26/11:00pm 29.2 NNW 13 17 1009.4 - 0.0 - - - - - - -
26/10:30pm 29.4 NNW 13 16 1009.6 - 0.0 - - - - - - -
26/10:00pm 29.4 NNW 13 17 1009.5 - 0.0 - - - - - - -
26/09:30pm 29.5 NNW 11 16 1009.6 - 0.0 - - - - - - -
26/09:00pm 29.4 NNW 12 15 1009.2 - 0.0 - - - - - - -
26/08:30pm 29.4 NNW 11 15 1008.7 - 0.0 - - - - - - -
26/08:00pm 29.5 NNW 12 16 1008.4 - 0.0 - - - - - - -
26/07:30pm 29.4 NNW 11 15 1008.0 - 0.0 - - - - - - -
26/07:00pm 29.5 N 11 14 1007.7 - 0.0 - - - - - - -
26/06:30pm 29.3 NNW 10 13 1007.2 - 0.0 - - - - - - -
26/06:00pm 29.4 N 9 12 1007.1 - 0.0 - - - - - - -
26/05:30pm 29.6 N 9 11 1006.6 - 0.0 - - - - - - -
26/05:00pm 29.9 N 8 11 1006.0 - 0.0 - - - - - - -
26/04:30pm 30.3 N 9 11 1005.8 - 0.0 - - - - - - -
26/04:00pm 31.1 N 7 10 1005.7 - 0.0 - - - - - - -
26/03:30pm 31.1 N 7 11 1005.9 - 0.0 - - - - - - -
26/03:00pm 31.3 N 9 11 1006.1 - 0.0 - - - - - - -
26/02:30pm 31.6 N 9 12 1006.2 - 0.0 - - - - - - -
26/02:00pm 31.0 N 7 8 1006.6 - 0.0 - - - - - - -
26/01:30pm 30.6 N 6 8 1006.9 - 0.0 - - - - - - -
26/01:00pm 30.9 N 7 9 1007.5 - 0.0 - - - - - - -
26/12:30pm 31.7 N 5 8 1008.2 - 0.0 - - - - - - -
26/12:00pm 31.6 N 6 9 1008.8 - 0.0 - - - - - - -
26/11:30am 30.8 N 6 8 1009.4 - 0.0 - - - - - - -
26/11:00am 31.2 NNW 5 8 1009.7 - 0.0 - - - - - - -
26/10:30am 31.1 N 5 8 1010.1 - 0.0 - - - - - - -
26/10:00am 31.6 SSW 4 6 1010.2 - 0.0 - - - - - - -
26/09:30am 31.1 WSW 5 9 1010.4 - 0.0 - - - - - - -
26/09:00am 30.2 WSW 4 6 1010.6 - 0.2 - - - - - - -
26/08:30am 29.4 SW 5 7 1010.5 - 0.2 - - - - - - -
26/08:00am 28.5 SW 5 6 1010.1 - 0.2 - - - - - - -
26/07:30am 26.8 W 1 4 1009.5 - 0.2 - - - - - - -
26/07:00am 25.6 NW 3 4 1009.1 - 0.2 - - - - - - -
26/06:30am 25.4 SW 1 3 1008.7 - 0.2 - - - - - - -
26/06:00am 25.6 NW 2 4 1008.5 - 0.2 - - - - - - -
26/05:30am 25.4 CALM 0 3 1008.3 - 0.2 - - - - - - -
26/05:00am 25.6 CALM 0 0 1008.4 - 0.2 - - - - - - -
26/04:30am 25.8 CALM 0 0 1008.1 - 0.2 - - - - - - -
26/04:00am 26.1 CALM 0 0 1008.0 - 0.2 - - - - - - -
26/03:30am 26.4 SE 4 4 1007.8 - 0.2 - - - - - - -
26/03:00am 26.9 SE 4 4 1007.8 - 0.2 - - - - - - -
26/02:30am 27.5 SE 7 10 1008.1 - 0.2 - - - - - - -
26/02:00am 27.6 SE 7 9 1008.5 - 0.2 - - - - - - -
26/01:30am 27.6 SSE 6 9 1008.8 - 0.2 - - - - - - -
26/01:00am 28.0 SE 8 11 1009.0 - 0.2 - - - - - - -
26/12:30am 28.1 SE 8 11 1009.4 - 0.2 - - - - - - -
26/12:00am 28.2 SE 7 10 1009.4 - 0.2 - - - - - - -
 
Date/Time
EST
Temp
°C
Wind Pressure Rain since
9am
mm
Weather Cloud Vis
km
Sea
Height
m
Swell
Dir  Spd
kts
Gust
kts
hPa Trend Height
m
Period
s
Dir
25/11:30pm 28.1 SE 7 11 1009.9 - 0.2 - - - - - - -
25/11:00pm 28.3 SSE 7 11 1010.2 - 0.2 - - - - - - -
25/10:30pm 28.5 SSE 10 13 1010.1 - 0.2 - - - - - - -
25/10:00pm 28.7 SE 11 15 1009.8 - 0.2 - - - - - - -
25/09:30pm 28.1 SE 7 10 1009.5 - 0.2 - - - - - - -
25/09:00pm 28.0 ESE 7 10 1008.9 - 0.2 - - - - - - -
25/08:30pm 28.6 SE 9 13 1008.9 - 0.2 - - - - - - -
25/08:00pm 28.3 SE 9 12 1008.8 - 0.2 - - - - - - -
25/07:30pm 28.1 SE 7 10 1008.7 - 0.2 - - - - - - -
25/07:00pm 28.1 SE 8 11 1008.6 - 0.2 - - - - - - -
25/06:30pm 28.0 SE 8 11 1008.3 - 0.2 - - - - - - -
25/06:00pm 28.2 SSE 8 11 1008.0 - 0.2 - - - - - - -
25/05:30pm 28.3 ESE 7 10 1007.4 - 0.2 - - - - - - -
25/05:00pm 28.6 ESE 9 14 1007.1 - 0.2 - - - - - - -
25/04:30pm 28.6 SE 13 16 1007.4 - 0.2 - - - - - - -
25/04:00pm 28.7 SE 12 18 1007.2 - 0.2 - - - - - - -
25/03:30pm 29.8 SE 13 17 1006.6 - 0.2 - - - - - - -
25/03:00pm 30.6 SE 13 16 1007.1 - 0.2 - - - - - - -
25/02:30pm 31.3 SE 10 15 1007.2 - 0.2 - - - - - - -
25/02:00pm 31.0 SE 10 13 1007.2 - 0.2 - - - - - - -
25/01:30pm 30.9 SE 8 11 1007.6 - 0.2 - - - - - - -
25/01:00pm 30.8 ESE 7 11 1008.0 - 0.2 - - - - - - -
25/12:30pm 30.2 SSE 7 9 1008.6 - 0.2 - - - - - - -
25/12:00pm 28.7 SSE 9 11 1009.1 - 0.2 - - - - - - -
25/11:30am 29.5 SSE 8 13 1009.6 - 0.2 - - - - - - -
25/11:00am 29.6 SSE 5 7 1010.1 - 0.2 - - - - - - -
25/10:30am 29.0 SSE 5 7 1010.4 - 0.2 - - - - - - -
25/10:00am 27.6 SE 6 8 1010.5 - 0.2 - - - - - - -
25/09:30am 26.4 SSE 6 7 1010.3 - 0.2 - - - - - - -
25/09:00am 26.1 SSE 11 16 1010.1 - 14.6 - - - - - - -
25/08:30am 27.0 SSW 5 6 1009.7 - 14.6 - - - - - - -

Other Formats:

Comma delimited format used in spreadsheet applications
http://www.bom.gov.au/fwo/IDQ60701/IDQ60701.94188.axf

JavaScript Object Notation format (JSON) in row-major order
http://www.bom.gov.au/fwo/IDQ60701/IDQ60701.94188.json